createdAt,value
2024-03-12T00:00:51.502Z,9.430372
2024-03-12T00:01:51.444Z,9.430377
2024-03-12T00:02:51.320Z,9.430277
2024-03-12T00:03:51.337Z,9.430318
2024-03-12T00:04:51.305Z,9.430346
2024-03-12T00:05:51.296Z,9.430339
2024-03-12T00:06:51.393Z,9.430305
2024-03-12T00:07:51.285Z,9.430326
2024-03-12T00:08:51.244Z,9.430315
2024-03-12T00:09:51.284Z,9.430353
2024-03-12T00:10:51.274Z,9.430347
2024-03-12T00:11:51.237Z,9.430425
2024-03-12T00:12:51.312Z,9.430424
2024-03-12T00:13:51.224Z,9.430358
2024-03-12T00:14:51.183Z,9.430400
2024-03-12T00:15:51.325Z,9.430321
2024-03-12T00:16:51.181Z,9.430315
2024-03-12T00:17:51.248Z,9.430336
2024-03-12T00:18:51.250Z,9.430344
2024-03-12T00:19:51.139Z,9.430354
2024-03-12T00:20:51.122Z,9.430320
2024-03-12T00:21:51.229Z,9.430361
2024-03-12T00:22:51.098Z,9.430318
2024-03-12T00:23:51.117Z,9.430352
2024-03-12T00:24:51.182Z,9.430361
2024-03-12T00:25:51.069Z,9.430315
2024-03-12T00:26:51.084Z,9.430363
2024-03-12T00:27:51.080Z,9.430354
2024-03-12T00:28:51.044Z,9.430372
2024-03-12T00:29:51.054Z,9.430343
2024-03-12T00:30:51.094Z,9.430332
2024-03-12T00:31:51.051Z,9.430323
2024-03-12T00:32:51.024Z,9.430317
2024-03-12T00:33:51.040Z,9.430308
2024-03-12T00:34:51.040Z,9.430300
2024-03-12T00:35:50.986Z,9.430331
2024-03-12T00:36:51.021Z,9.430336
2024-03-12T00:37:50.955Z,9.430329
2024-03-12T00:38:50.933Z,9.430299
2024-03-12T00:39:50.967Z,9.430312
2024-03-12T00:40:51.032Z,9.430310
2024-03-12T00:41:51.001Z,9.430309
2024-03-12T00:42:50.938Z,9.430314
2024-03-12T00:43:50.933Z,9.430288
2024-03-12T00:44:50.897Z,9.430305
2024-03-12T00:45:50.959Z,9.430311
2024-03-12T00:46:50.859Z,9.430309
2024-03-12T00:47:50.918Z,9.430264
2024-03-12T00:48:50.889Z,9.430262
2024-03-12T00:49:50.852Z,9.430275
2024-03-12T00:50:50.856Z,9.430274
2024-03-12T00:51:50.864Z,9.430305
2024-03-12T00:52:51.773Z,9.430264
2024-03-12T00:53:50.783Z,9.430308
2024-03-12T00:54:50.786Z,9.430294
2024-03-12T00:55:50.868Z,9.430255
2024-03-12T00:56:50.832Z,9.430291
2024-03-12T00:57:50.780Z,9.430335
2024-03-12T00:58:50.782Z,9.430340
2024-03-12T00:59:50.725Z,9.430308
2024-03-12T01:00:51.176Z,9.430308
2024-03-12T01:01:50.714Z,9.430358
2024-03-12T01:02:50.842Z,9.430291
2024-03-12T01:03:50.737Z,9.430246
2024-03-12T01:04:50.635Z,9.430285
2024-03-12T01:05:50.642Z,9.430314
2024-03-12T01:06:50.663Z,9.430341
2024-03-12T01:07:50.625Z,9.430305
2024-03-12T01:08:50.628Z,9.430272
2024-03-12T01:09:50.623Z,9.430340
2024-03-12T01:10:50.585Z,9.430353
2024-03-12T01:11:50.595Z,9.430335
2024-03-12T01:12:50.614Z,9.430349
2024-03-12T01:13:50.558Z,9.430299
2024-03-12T01:14:51.549Z,9.430302
2024-03-12T01:15:50.581Z,9.430326
2024-03-12T01:16:50.514Z,9.430358
2024-03-12T01:17:50.583Z,9.430398
2024-03-12T01:18:50.501Z,9.430397
2024-03-12T01:19:50.523Z,9.430397
2024-03-12T01:20:50.532Z,9.430362
2024-03-12T01:21:50.567Z,9.430355
2024-03-12T01:22:50.486Z,9.430364
2024-03-12T01:23:51.074Z,9.430448
2024-03-12T01:24:50.508Z,9.430384
2024-03-12T01:25:50.451Z,9.430356
2024-03-12T01:26:50.431Z,9.430421
2024-03-12T01:27:50.532Z,9.430490
2024-03-12T01:28:50.410Z,9.430386
2024-03-12T01:29:50.406Z,9.430408
2024-03-12T01:30:50.436Z,9.430396
2024-03-12T01:31:50.402Z,9.430266
2024-03-12T01:32:50.393Z,9.430361
2024-03-12T01:33:50.403Z,9.430397
2024-03-12T01:34:50.380Z,9.430332
2024-03-12T01:35:50.370Z,9.430320
2024-03-12T01:36:50.388Z,9.430370
2024-03-12T01:37:50.323Z,9.430408
2024-03-12T01:38:50.291Z,9.430385
2024-03-12T01:39:50.308Z,9.430386
2024-03-12T01:40:50.279Z,9.430345
2024-03-12T01:41:50.226Z,9.430310
2024-03-12T01:42:51.359Z,9.430366
2024-03-12T01:43:50.223Z,9.430356
2024-03-12T01:44:50.225Z,9.430417
2024-03-12T01:45:50.263Z,9.430406
2024-03-12T01:46:50.278Z,9.430483
2024-03-12T01:47:50.266Z,9.430384
2024-03-12T01:48:50.206Z,9.430294
2024-03-12T01:49:50.157Z,9.430265
2024-03-12T01:50:50.174Z,9.430306
2024-03-12T01:51:50.237Z,9.430324
2024-03-12T01:52:50.159Z,9.430346
2024-03-12T01:53:50.165Z,9.430342
2024-03-12T01:54:50.191Z,9.430335
2024-03-12T01:55:50.115Z,9.430332
2024-03-12T01:56:50.094Z,9.430323
2024-03-12T01:57:50.119Z,9.430313
2024-03-12T01:58:50.075Z,9.430348
2024-03-12T01:59:50.042Z,9.430367
2024-03-12T02:00:51.144Z,9.430337
2024-03-12T02:01:50.088Z,9.430329
2024-03-12T02:02:50.045Z,9.430356
2024-03-12T02:03:50.092Z,9.430395
2024-03-12T02:04:49.988Z,9.430390
2024-03-12T02:05:50.012Z,9.430364
2024-03-12T02:06:50.066Z,9.430387
2024-03-12T02:07:49.969Z,9.430436
2024-03-12T02:08:49.962Z,9.430406
2024-03-12T02:09:50.010Z,9.430394
2024-03-12T02:10:49.957Z,9.430402
2024-03-12T02:11:49.934Z,9.430346
2024-03-12T02:12:50.249Z,9.430354
2024-03-12T02:13:50.915Z,9.430351
2024-03-12T02:14:49.936Z,9.430295
2024-03-12T02:15:49.974Z,9.430321
2024-03-12T02:16:49.896Z,9.430342
2024-03-12T02:17:49.922Z,9.430340
2024-03-12T02:18:49.886Z,9.430383
2024-03-12T02:19:49.869Z,9.430349
2024-03-12T02:20:49.861Z,9.430352
2024-03-12T02:21:49.884Z,9.430330
2024-03-12T02:22:49.842Z,9.430307
2024-03-12T02:23:49.815Z,9.430333
2024-03-12T02:24:49.814Z,9.430337
2024-03-12T02:25:49.800Z,9.430378
2024-03-12T02:26:49.781Z,9.430326
2024-03-12T02:27:49.844Z,9.430331
2024-03-12T02:28:49.765Z,9.430362
2024-03-12T02:29:49.747Z,9.430353
2024-03-12T02:30:49.899Z,9.430370
2024-03-12T02:31:49.768Z,9.430365
2024-03-12T02:32:50.250Z,9.430348
2024-03-12T02:33:49.753Z,9.430367
2024-03-12T02:34:49.703Z,9.430429
2024-03-12T02:35:49.647Z,9.430401
2024-03-12T02:36:49.700Z,9.430347
2024-03-12T02:37:49.715Z,9.430373
2024-03-12T02:38:49.631Z,9.430301
2024-03-12T02:39:49.715Z,9.430319
2024-03-12T02:40:49.651Z,9.430350
2024-03-12T02:41:49.631Z,9.430372
2024-03-12T02:42:49.681Z,9.430347
2024-03-12T02:43:49.589Z,9.430355
2024-03-12T02:44:49.587Z,9.430339
2024-03-12T02:45:49.571Z,9.430374
2024-03-12T02:46:49.550Z,9.430343
2024-03-12T02:47:49.640Z,9.430321
2024-03-12T02:48:49.567Z,9.430366
2024-03-12T02:49:49.534Z,9.430368
2024-03-12T02:50:49.509Z,9.430305
2024-03-12T02:51:49.510Z,9.430289
2024-03-12T02:52:49.501Z,9.430335
2024-03-12T02:53:49.502Z,9.430363
2024-03-12T02:54:50.520Z,9.430363
2024-03-12T02:55:49.437Z,9.430419
2024-03-12T02:56:49.673Z,9.430367
2024-03-12T02:57:49.475Z,9.430349
2024-03-12T02:58:49.444Z,9.430364
2024-03-12T02:59:49.433Z,9.430350
2024-03-12T03:00:49.523Z,9.430348
2024-03-12T03:01:49.443Z,9.430365
2024-03-12T03:02:49.377Z,9.430418
2024-03-12T03:03:49.418Z,9.430456
2024-03-12T03:04:50.093Z,9.430322
2024-03-12T03:05:49.352Z,9.430413
2024-03-12T03:06:49.378Z,9.430389
2024-03-12T03:07:49.391Z,9.430365
2024-03-12T03:08:49.350Z,9.430361
2024-03-12T03:09:49.367Z,9.430346
2024-03-12T03:10:49.366Z,9.430383
2024-03-12T03:11:49.299Z,9.430379
2024-03-12T03:12:50.178Z,9.430371
2024-03-12T03:13:49.260Z,9.430387
2024-03-12T03:14:49.244Z,9.430384
2024-03-12T03:15:49.318Z,9.430372
2024-03-12T03:16:49.252Z,9.430364
2024-03-12T03:17:49.251Z,9.430367
2024-03-12T03:18:49.270Z,9.430365
2024-03-12T03:19:49.210Z,9.430328
2024-03-12T03:20:49.195Z,9.430421
2024-03-12T03:21:49.217Z,9.430373
2024-03-12T03:22:49.197Z,9.430380
2024-03-12T03:23:49.193Z,9.430364
2024-03-12T03:24:49.169Z,9.430407
2024-03-12T03:25:49.142Z,9.430329
2024-03-12T03:26:49.117Z,9.430363
2024-03-12T03:27:49.159Z,9.430311
2024-03-12T03:28:49.101Z,9.430279
2024-03-12T03:29:49.096Z,9.430324
2024-03-12T03:30:49.151Z,9.430301
2024-03-12T03:31:49.074Z,9.430282
2024-03-12T03:32:49.458Z,9.430288
2024-03-12T03:33:49.185Z,9.430304
2024-03-12T03:34:49.026Z,9.430306
2024-03-12T03:35:49.021Z,9.430346
2024-03-12T03:36:49.126Z,9.430297
2024-03-12T03:37:49.038Z,9.430273
2024-03-12T03:38:49.016Z,9.430247
2024-03-12T03:39:49.091Z,9.430235
2024-03-12T03:40:49.006Z,9.430257
2024-03-12T03:41:48.989Z,9.430291
2024-03-12T03:42:49.009Z,9.430306
2024-03-12T03:43:48.977Z,9.430302
2024-03-12T03:44:48.954Z,9.430248
2024-03-12T03:45:49.020Z,9.430287
2024-03-12T03:46:48.890Z,9.430319
2024-03-12T03:47:49.503Z,9.430256
2024-03-12T03:48:48.908Z,9.430307
2024-03-12T03:49:48.855Z,9.430355
2024-03-12T03:50:48.862Z,9.430288
2024-03-12T03:51:48.850Z,9.430256
2024-03-12T03:52:48.830Z,9.430340
2024-03-12T03:53:48.834Z,9.430295
2024-03-12T03:54:48.836Z,9.430329
2024-03-12T03:55:48.801Z,9.430313
2024-03-12T03:56:48.800Z,9.430296
2024-03-12T03:57:48.927Z,9.430333
2024-03-12T03:58:48.805Z,9.430320
2024-03-12T03:59:48.773Z,9.430351
2024-03-12T04:00:48.795Z,9.430334
2024-03-12T04:01:48.760Z,9.430337
2024-03-12T04:02:48.742Z,9.430292
2024-03-12T04:03:48.831Z,9.430336
2024-03-12T04:04:48.706Z,9.430371
2024-03-12T04:05:48.695Z,9.430319
2024-03-12T04:06:50.364Z,9.430415
2024-03-12T04:07:48.665Z,9.430440
2024-03-12T04:08:48.688Z,9.430412
2024-03-12T04:09:48.724Z,9.430342
2024-03-12T04:10:48.754Z,9.430335
2024-03-12T04:11:48.658Z,9.430307
2024-03-12T04:12:48.736Z,9.430243
2024-03-12T04:13:48.591Z,9.430235
2024-03-12T04:14:48.586Z,9.430245
2024-03-12T04:15:48.648Z,9.430326
2024-03-12T04:16:48.590Z,9.430314
2024-03-12T04:17:48.671Z,9.430339
2024-03-12T04:18:48.606Z,9.430327
2024-03-12T04:19:48.564Z,9.430309
2024-03-12T04:20:48.544Z,9.430295
2024-03-12T04:21:48.586Z,9.430311
2024-03-12T04:22:48.512Z,9.430318
2024-03-12T04:23:48.493Z,9.430334
2024-03-12T04:24:48.559Z,9.430385
2024-03-12T04:25:48.490Z,9.430352
2024-03-12T04:26:48.472Z,9.430324
2024-03-12T04:27:48.502Z,9.430334
2024-03-12T04:28:48.450Z,9.430392
2024-03-12T04:29:48.466Z,9.430382
2024-03-12T04:30:48.482Z,9.430324
2024-03-12T04:31:48.431Z,9.430302
2024-03-12T04:32:48.690Z,9.430326
2024-03-12T04:33:48.472Z,9.430363
2024-03-12T04:34:48.370Z,9.430293
2024-03-12T04:35:48.375Z,9.430332
2024-03-12T04:36:48.403Z,9.430309
2024-03-12T04:37:48.416Z,9.430302
2024-03-12T04:38:48.373Z,9.430292
2024-03-12T04:39:48.515Z,9.430314
2024-03-12T04:40:48.310Z,9.430354
2024-03-12T04:41:48.333Z,9.430286
2024-03-12T04:42:48.371Z,9.430305
2024-03-12T04:43:48.297Z,9.430255
2024-03-12T04:44:48.311Z,9.430270
2024-03-12T04:45:48.328Z,9.430264
2024-03-12T04:46:48.274Z,9.430326
2024-03-12T04:47:50.177Z,9.430337
2024-03-12T04:48:48.268Z,9.430349
2024-03-12T04:49:48.239Z,9.430281
2024-03-12T04:50:48.215Z,9.430328
2024-03-12T04:51:48.233Z,9.430343
2024-03-12T04:52:48.204Z,9.430324
2024-03-12T04:53:48.211Z,9.430300
2024-03-12T04:54:48.235Z,9.430313
2024-03-12T04:55:48.171Z,9.430327
2024-03-12T04:56:48.203Z,9.430301
2024-03-12T04:57:49.163Z,9.430277
2024-03-12T04:58:48.210Z,9.430300
2024-03-12T04:59:48.172Z,9.430351
2024-03-12T05:00:48.244Z,9.430359
2024-03-12T05:01:48.193Z,9.430350
2024-03-12T05:02:48.096Z,9.430331
2024-03-12T05:03:48.113Z,9.430371
2024-03-12T05:04:48.084Z,9.430321
2024-03-12T05:05:48.048Z,9.430295
2024-03-12T05:06:48.102Z,9.430301
2024-03-12T05:07:48.051Z,9.430319
2024-03-12T05:08:48.014Z,9.430325
2024-03-12T05:09:48.042Z,9.430318
2024-03-12T05:10:48.047Z,9.430309
2024-03-12T05:11:48.027Z,9.430289
2024-03-12T05:12:48.012Z,9.430298
2024-03-12T05:13:47.983Z,9.430272
2024-03-12T05:14:47.961Z,9.430305
2024-03-12T05:15:47.961Z,9.430319
2024-03-12T05:16:47.939Z,9.430350
2024-03-12T05:17:47.949Z,9.430332
2024-03-12T05:18:47.961Z,9.430355
2024-03-12T05:19:47.896Z,9.430369
2024-03-12T05:20:47.896Z,9.430374
2024-03-12T05:21:47.909Z,9.430328
2024-03-12T05:22:47.874Z,9.430366
2024-03-12T05:23:47.889Z,9.430377
2024-03-12T05:24:47.870Z,9.430372
2024-03-12T05:25:47.976Z,9.430353
2024-03-12T05:26:47.845Z,9.430321
2024-03-12T05:27:47.848Z,9.430339
2024-03-12T05:28:47.812Z,9.430329
2024-03-12T05:29:47.797Z,9.430339
2024-03-12T05:30:47.820Z,9.430370
2024-03-12T05:31:47.795Z,9.430342
2024-03-12T05:32:47.838Z,9.430349
2024-03-12T05:33:47.771Z,9.430353
2024-03-12T05:34:47.737Z,9.430373
2024-03-12T05:35:47.757Z,9.430358
2024-03-12T05:36:47.798Z,9.430341
2024-03-12T05:37:47.722Z,9.430362
2024-03-12T05:38:47.700Z,9.430330
2024-03-12T05:39:47.773Z,9.430342
2024-03-12T05:40:47.768Z,9.430301
2024-03-12T05:41:47.686Z,9.430277
2024-03-12T05:42:47.733Z,9.430395
2024-03-12T05:43:50.276Z,9.430376
2024-03-12T05:44:48.651Z,9.430374
2024-03-12T05:45:47.726Z,9.430309
2024-03-12T05:46:47.778Z,9.430274
2024-03-12T05:47:47.726Z,9.430349
2024-03-12T05:48:47.603Z,9.430378
2024-03-12T05:49:47.612Z,9.430295
2024-03-12T05:50:47.593Z,9.430311
2024-03-12T05:51:47.622Z,9.430277
2024-03-12T05:52:47.577Z,9.430278
2024-03-12T05:53:47.546Z,9.430363
2024-03-12T05:54:47.598Z,9.430350
2024-03-12T05:55:47.558Z,9.430339
2024-03-12T05:56:47.516Z,9.430379
2024-03-12T05:57:47.540Z,9.430325
2024-03-12T05:58:47.959Z,9.430350
2024-03-12T05:59:47.470Z,9.430387
2024-03-12T06:00:47.483Z,9.430442
2024-03-12T06:01:47.513Z,9.430373
2024-03-12T06:02:47.480Z,9.430378
2024-03-12T06:03:47.651Z,9.430365
2024-03-12T06:04:47.458Z,9.430375
2024-03-12T06:05:47.444Z,9.430284
2024-03-12T06:06:47.403Z,9.430316
2024-03-12T06:07:47.400Z,9.430331
2024-03-12T06:08:47.423Z,9.430308
2024-03-12T06:09:47.417Z,9.430325
2024-03-12T06:10:47.366Z,9.430359
2024-03-12T06:11:47.385Z,9.430367
2024-03-12T06:12:47.370Z,9.430361
2024-03-12T06:13:47.421Z,9.430374
2024-03-12T06:14:47.331Z,9.430384
2024-03-12T06:15:47.512Z,9.430368
2024-03-12T06:16:47.297Z,9.430342
2024-03-12T06:17:48.139Z,9.430346
2024-03-12T06:18:47.389Z,9.430363
2024-03-12T06:19:47.391Z,9.430342
2024-03-12T06:20:47.261Z,9.430368
2024-03-12T06:21:47.296Z,9.430352
2024-03-12T06:22:47.212Z,9.430331
2024-03-12T06:23:47.198Z,9.430348
2024-03-12T06:24:47.260Z,9.430357
2024-03-12T06:25:47.244Z,9.430381
2024-03-12T06:26:47.181Z,9.430347
2024-03-12T06:27:47.186Z,9.430343
2024-03-12T06:28:47.220Z,9.430323
2024-03-12T06:29:47.163Z,9.430318
2024-03-12T06:30:47.271Z,9.430324
2024-03-12T06:31:47.167Z,9.430335
2024-03-12T06:32:47.134Z,9.430333
2024-03-12T06:33:47.161Z,9.430348
2024-03-12T06:34:48.751Z,9.430356
2024-03-12T06:35:48.106Z,9.430347
2024-03-12T06:36:47.139Z,9.430329
2024-03-12T06:37:47.081Z,9.430316
2024-03-12T06:38:47.062Z,9.430315
2024-03-12T06:39:47.130Z,9.430321
2024-03-12T06:40:47.076Z,9.430307
2024-03-12T06:41:47.028Z,9.430301
2024-03-12T06:42:47.040Z,9.430316
2024-03-12T06:43:47.039Z,9.430342
2024-03-12T06:44:46.988Z,9.430328
2024-03-12T06:45:47.121Z,9.430321
2024-03-12T06:46:46.985Z,9.430325
2024-03-12T06:47:47.014Z,9.430333
2024-03-12T06:48:46.968Z,9.430367
2024-03-12T06:49:46.945Z,9.430290
2024-03-12T06:50:47.230Z,9.430335
2024-03-12T06:51:47.016Z,9.430346
2024-03-12T06:52:46.942Z,9.430347
2024-03-12T06:53:46.915Z,9.430366
2024-03-12T06:54:46.916Z,9.430341
2024-03-12T06:55:47.033Z,9.430348
2024-03-12T06:56:47.021Z,9.430339
2024-03-12T06:57:46.942Z,9.430326
2024-03-12T06:58:47.019Z,9.430303
2024-03-12T06:59:46.847Z,9.430296
2024-03-12T07:00:46.874Z,9.430285
2024-03-12T07:01:46.899Z,9.430287
2024-03-12T07:02:46.935Z,9.430286
2024-03-12T07:03:49.093Z,9.430310
2024-03-12T07:04:46.808Z,9.430286
2024-03-12T07:05:46.774Z,9.430303
2024-03-12T07:06:46.810Z,9.430312
2024-03-12T07:07:46.780Z,9.430359
2024-03-12T07:08:46.774Z,9.430345
2024-03-12T07:09:46.786Z,9.430372
2024-03-12T07:10:47.144Z,9.430356
2024-03-12T07:11:46.716Z,9.430331
2024-03-12T07:12:46.739Z,9.430397
2024-03-12T07:13:46.695Z,9.430346
2024-03-12T07:14:46.843Z,9.430313
2024-03-12T07:15:46.795Z,9.430304
2024-03-12T07:16:46.683Z,9.430321
2024-03-12T07:17:46.690Z,9.430338
2024-03-12T07:18:46.655Z,9.430321
2024-03-12T07:19:46.672Z,9.430344
2024-03-12T07:20:47.599Z,9.430319
2024-03-12T07:21:46.635Z,9.430346
2024-03-12T07:22:47.065Z,9.430305
2024-03-12T07:23:46.715Z,9.430354
2024-03-12T07:24:46.609Z,9.430320
2024-03-12T07:25:46.586Z,9.430318
2024-03-12T07:26:46.540Z,9.430322
2024-03-12T07:27:46.633Z,9.430341
2024-03-12T07:28:46.579Z,9.430300
2024-03-12T07:29:46.503Z,9.430366
2024-03-12T07:30:46.589Z,9.430326
2024-03-12T07:31:46.580Z,9.430328
2024-03-12T07:32:46.542Z,9.430312
2024-03-12T07:33:46.512Z,9.430330
2024-03-12T07:34:46.466Z,9.430305
2024-03-12T07:35:46.448Z,9.430313
2024-03-12T07:36:46.475Z,9.430333
2024-03-12T07:37:46.459Z,9.430369
2024-03-12T07:38:46.423Z,9.430368
2024-03-12T07:39:46.405Z,9.430388
2024-03-12T07:40:46.403Z,9.430373
2024-03-12T07:41:46.392Z,9.430390
2024-03-12T07:42:46.416Z,9.430345
2024-03-12T07:43:46.385Z,9.430361
2024-03-12T07:44:46.339Z,9.430365
2024-03-12T07:45:46.356Z,9.430346
2024-03-12T07:46:46.306Z,9.430377
2024-03-12T07:47:46.363Z,9.430396
2024-03-12T07:48:46.400Z,9.430383
2024-03-12T07:49:46.301Z,9.430343
2024-03-12T07:50:46.313Z,9.430346
2024-03-12T07:51:46.280Z,9.430337
2024-03-12T07:52:46.260Z,9.430355
2024-03-12T07:53:46.273Z,9.430381
2024-03-12T07:54:46.272Z,9.430392
2024-03-12T07:55:46.217Z,9.430429
2024-03-12T07:56:46.285Z,9.430354
2024-03-12T07:57:46.282Z,9.430339
2024-03-12T07:58:46.185Z,9.430340
2024-03-12T07:59:46.183Z,9.430379
2024-03-12T08:00:47.188Z,9.430385
2024-03-12T08:01:46.192Z,9.430374
2024-03-12T08:02:46.133Z,9.430392
2024-03-12T08:03:46.284Z,9.430317
2024-03-12T08:04:46.137Z,9.430401
2024-03-12T08:05:46.132Z,9.430394
2024-03-12T08:06:46.225Z,9.430403
2024-03-12T08:07:46.236Z,9.430446
2024-03-12T08:08:46.161Z,9.430442
2024-03-12T08:09:46.150Z,9.430402
2024-03-12T08:10:46.048Z,9.430357
2024-03-12T08:11:46.086Z,9.430354
2024-03-12T08:12:46.054Z,9.430391
2024-03-12T08:13:46.056Z,9.430376
2024-03-12T08:14:46.064Z,9.430407
2024-03-12T08:15:46.059Z,9.430405
2024-03-12T08:16:46.040Z,9.430430
2024-03-12T08:17:48.209Z,9.430397
2024-03-12T08:18:47.055Z,9.430391
2024-03-12T08:19:46.207Z,9.430393
2024-03-12T08:20:45.971Z,9.430380
2024-03-12T08:21:46.114Z,9.430392
2024-03-12T08:22:45.947Z,9.430395
2024-03-12T08:23:45.957Z,9.430438
2024-03-12T08:24:46.056Z,9.430405
2024-03-12T08:25:55.204Z,9.430449
2024-03-12T08:26:47.922Z,9.430450
2024-03-12T08:27:45.931Z,9.430456
2024-03-12T08:28:45.839Z,9.430481
2024-03-12T08:29:45.885Z,9.430455
2024-03-12T08:30:45.943Z,9.430428
2024-03-12T08:31:51.703Z,9.430402
2024-03-12T08:32:46.868Z,9.430401
2024-03-12T08:33:45.883Z,9.430419
2024-03-12T08:34:45.789Z,9.430430
2024-03-12T08:35:45.904Z,9.430432
2024-03-12T08:36:45.890Z,9.430450
2024-03-12T08:37:45.843Z,9.430451
2024-03-12T08:38:45.845Z,9.430461
2024-03-12T08:39:45.894Z,9.430388
2024-03-12T08:40:45.811Z,9.430397
2024-03-12T08:41:45.767Z,9.430366
2024-03-12T08:42:54.021Z,9.430386
2024-03-12T08:43:46.755Z,9.430409
2024-03-12T08:44:45.727Z,9.430377
2024-03-12T08:45:45.731Z,9.430343
2024-03-12T08:46:45.702Z,9.430371
2024-03-12T08:47:45.694Z,9.430424
2024-03-12T08:48:45.685Z,9.430387
2024-03-12T08:49:45.662Z,9.430411
2024-03-12T08:50:45.658Z,9.430407
2024-03-12T08:51:45.752Z,9.430409
2024-03-12T08:52:45.620Z,9.430387
2024-03-12T08:53:45.603Z,9.430401
2024-03-12T08:54:45.715Z,9.430414
2024-03-12T08:55:45.622Z,9.430412
2024-03-12T08:56:45.609Z,9.430388
2024-03-12T08:57:45.618Z,9.430372
2024-03-12T08:58:45.571Z,9.430396
2024-03-12T08:59:45.547Z,9.430397
2024-03-12T09:00:45.695Z,9.430435
2024-03-12T09:01:45.912Z,9.430392
2024-03-12T09:02:45.515Z,9.430422
2024-03-12T09:03:47.056Z,9.430399
2024-03-12T09:04:46.590Z,9.430369
2024-03-12T09:05:45.513Z,9.430400
2024-03-12T09:06:45.538Z,9.430445
2024-03-12T09:07:45.449Z,9.430440
2024-03-12T09:08:45.441Z,9.430435
2024-03-12T09:09:45.627Z,9.430419
2024-03-12T09:10:45.505Z,9.430415
2024-03-12T09:11:45.449Z,9.430431
2024-03-12T09:12:45.437Z,9.430416
2024-03-12T09:13:45.393Z,9.430447
2024-03-12T09:14:45.403Z,9.430409
2024-03-12T09:15:45.421Z,9.430416
2024-03-12T09:16:45.439Z,9.430412
2024-03-12T09:17:45.374Z,9.430371
2024-03-12T09:18:45.454Z,9.430383
2024-03-12T09:19:45.328Z,9.430333
2024-03-12T09:20:45.325Z,9.430389
2024-03-12T09:21:45.322Z,9.430499
2024-03-12T09:22:45.279Z,9.430481
2024-03-12T09:23:53.206Z,9.430438
2024-03-12T09:24:46.327Z,9.430430
2024-03-12T09:25:45.274Z,9.430433
2024-03-12T09:26:45.346Z,9.430386
2024-03-12T09:27:45.248Z,9.430487
2024-03-12T09:28:46.486Z,9.430413
2024-03-12T09:29:45.256Z,9.430407
2024-03-12T09:30:45.266Z,9.430383
2024-03-12T09:31:45.212Z,9.430381
2024-03-12T09:32:45.282Z,9.430410
2024-03-12T09:33:45.206Z,9.430352
2024-03-12T09:34:45.184Z,9.430376
2024-03-12T09:35:45.171Z,9.430353
2024-03-12T09:36:45.187Z,9.430334
2024-03-12T09:37:45.194Z,9.430329
2024-03-12T09:38:45.460Z,9.430344
2024-03-12T09:39:45.220Z,9.430365
2024-03-12T09:40:45.140Z,9.430318
2024-03-12T09:41:45.085Z,9.430319
2024-03-12T09:42:45.159Z,9.430320
2024-03-12T09:43:45.331Z,9.430339
2024-03-12T09:44:45.049Z,9.430387
2024-03-12T09:45:45.129Z,9.430417
2024-03-12T09:46:45.031Z,9.430409
2024-03-12T09:47:45.016Z,9.430417
2024-03-12T09:48:45.068Z,9.430404
2024-03-12T09:49:45.052Z,9.430389
2024-03-12T09:50:44.977Z,9.430403
2024-03-12T09:51:45.117Z,9.430397
2024-03-12T09:52:45.000Z,9.430388
2024-03-12T09:53:44.982Z,9.430353
2024-03-12T09:54:44.992Z,9.430342
2024-03-12T09:55:44.974Z,9.430365
2024-03-12T09:56:44.908Z,9.430368
2024-03-12T09:57:45.648Z,9.430355
2024-03-12T09:58:45.029Z,9.430354
2024-03-12T09:59:44.917Z,9.430371
2024-03-12T10:00:44.930Z,9.430404
2024-03-12T10:01:44.992Z,9.430383
2024-03-12T10:02:44.886Z,9.430361
2024-03-12T10:03:44.933Z,9.430386
2024-03-12T10:04:44.843Z,9.430419
2024-03-12T10:05:44.879Z,9.430392
2024-03-12T10:06:44.848Z,9.430362
2024-03-12T10:07:44.811Z,9.430370
2024-03-12T10:08:44.847Z,9.430380
2024-03-12T10:09:44.815Z,9.430390
2024-03-12T10:10:44.861Z,9.430429
2024-03-12T10:11:44.787Z,9.430401
2024-03-12T10:12:44.796Z,9.430388
2024-03-12T10:13:44.788Z,9.430364
2024-03-12T10:14:44.763Z,9.430413
2024-03-12T10:15:44.752Z,9.430419
2024-03-12T10:16:44.749Z,9.430390
2024-03-12T10:17:44.753Z,9.430367
2024-03-12T10:18:44.685Z,9.430438
2024-03-12T10:19:44.764Z,9.430400
2024-03-12T10:20:44.693Z,9.430364
2024-03-12T10:21:44.708Z,9.430346
2024-03-12T10:22:44.712Z,9.430348
2024-03-12T10:23:44.703Z,9.430385
2024-03-12T10:24:44.686Z,9.430320
2024-03-12T10:25:44.619Z,9.430362
2024-03-12T10:26:44.638Z,9.430320
2024-03-12T10:27:51.260Z,9.430330
2024-03-12T10:28:47.189Z,9.430337
2024-03-12T10:29:44.641Z,9.430371
2024-03-12T10:30:44.631Z,9.430345
2024-03-12T10:31:44.650Z,9.430409
2024-03-12T10:32:44.598Z,9.430345
2024-03-12T10:33:44.559Z,9.430351
2024-03-12T10:34:44.566Z,9.430359
2024-03-12T10:35:44.547Z,9.430346
2024-03-12T10:36:44.572Z,9.430396
2024-03-12T10:37:44.495Z,9.430335
2024-03-12T10:38:44.512Z,9.430326
2024-03-12T10:39:44.489Z,9.430374
2024-03-12T10:40:44.491Z,9.430364
2024-03-12T10:41:44.559Z,9.430326
2024-03-12T10:42:44.499Z,9.430326
2024-03-12T10:43:44.455Z,9.430304
2024-03-12T10:44:44.440Z,9.430341
2024-03-12T10:45:44.473Z,9.430398
2024-03-12T10:46:44.880Z,9.430372
2024-03-12T10:47:44.488Z,9.430339
2024-03-12T10:48:44.471Z,9.430271
2024-03-12T10:49:44.404Z,9.430368
2024-03-12T10:50:44.379Z,9.430401
2024-03-12T10:51:44.572Z,9.430377
2024-03-12T10:52:44.369Z,9.430352
2024-03-12T10:53:44.408Z,9.430396
2024-03-12T10:54:48.461Z,9.430400
2024-03-12T10:55:46.558Z,9.430395
2024-03-12T10:56:44.365Z,9.430427
2024-03-12T10:57:44.474Z,9.430314
2024-03-12T10:58:44.308Z,9.430326
2024-03-12T10:59:44.370Z,9.430385
2024-03-12T11:00:44.364Z,9.430342
2024-03-12T11:01:44.368Z,9.430328
2024-03-12T11:02:44.303Z,9.430344
2024-03-12T11:03:44.428Z,9.430372
2024-03-12T11:04:44.243Z,9.430364
2024-03-12T11:05:44.259Z,9.430388
2024-03-12T11:06:44.995Z,9.430361
2024-03-12T11:07:44.242Z,9.430357
2024-03-12T11:08:44.205Z,9.430367
2024-03-12T11:09:44.282Z,9.430362
2024-03-12T11:10:44.229Z,9.430398
2024-03-12T11:11:44.174Z,9.430425
2024-03-12T11:12:44.255Z,9.430406
2024-03-12T11:13:44.134Z,9.430363
2024-03-12T11:14:44.154Z,9.430399
2024-03-12T11:15:44.252Z,9.430401
2024-03-12T11:16:44.156Z,9.430378
2024-03-12T11:17:44.150Z,9.430368
2024-03-12T11:18:44.467Z,9.430391
2024-03-12T11:19:44.102Z,9.430391
2024-03-12T11:20:44.096Z,9.430388
2024-03-12T11:21:44.123Z,9.430409
2024-03-12T11:22:45.027Z,9.430396
2024-03-12T11:23:44.069Z,9.430337
2024-03-12T11:24:44.330Z,9.430387
2024-03-12T11:25:45.290Z,9.430385
2024-03-12T11:26:44.005Z,9.430385
2024-03-12T11:27:44.058Z,9.430397
2024-03-12T11:28:43.993Z,9.430379
2024-03-12T11:29:44.038Z,9.430338
2024-03-12T11:30:44.038Z,9.430380
2024-03-12T11:31:43.966Z,9.430334
2024-03-12T11:32:44.011Z,9.430378
2024-03-12T11:33:44.033Z,9.430394
2024-03-12T11:34:44.941Z,9.430383
2024-03-12T11:35:43.966Z,9.430481
2024-03-12T11:36:43.960Z,9.430429
2024-03-12T11:37:43.894Z,9.430410
2024-03-12T11:38:43.915Z,9.430448
2024-03-12T11:39:43.953Z,9.430447
2024-03-12T11:40:43.899Z,9.430393
2024-03-12T11:41:43.850Z,9.430399
2024-03-12T11:42:43.964Z,9.430462
2024-03-12T11:43:43.855Z,9.430397
2024-03-12T11:44:43.836Z,9.430423